sensor_id;sensor_type;location;lat;lon;timestamp;P1;durP1;ratioP1;P2;durP2;ratioP2
31974;SDS011;18500;43.618;1.474;2023-12-07T15:55:30;969.60;;;884.88;;
31974;SDS011;18500;43.618;1.474;2023-12-07T15:57:56;1023.40;;;932.08;;
31974;SDS011;18500;43.618;1.474;2023-12-07T16:00:21;973.67;;;889.53;;
31974;SDS011;18500;43.618;1.474;2023-12-07T16:02:47;974.00;;;892.83;;
31974;SDS011;18500;43.618;1.474;2023-12-07T16:05:13;1044.75;;;949.53;;
31974;SDS011;18500;43.618;1.474;2023-12-07T16:07:38;1014.63;;;921.85;;
31974;SDS011;18500;43.618;1.474;2023-12-07T16:10:05;990.95;;;905.97;;
31974;SDS011;18500;43.618;1.474;2023-12-07T16:12:35;1050.22;;;959.22;;
31974;SDS011;18500;43.618;1.474;2023-12-07T16:15:01;1018.05;;;934.50;;
31974;SDS011;18500;43.618;1.474;2023-12-07T16:17:27;1034.63;;;948.03;;
31974;SDS011;18500;43.618;1.474;2023-12-07T16:19:54;1001.45;;;917.47;;
31974;SDS011;18500;43.618;1.474;2023-12-07T16:22:20;1022.15;;;932.72;;
31974;SDS011;18500;43.618;1.474;2023-12-07T16:24:45;1023.35;;;934.13;;
31974;SDS011;18500;43.618;1.474;2023-12-07T16:27:11;997.75;;;910.03;;
31974;SDS011;18500;43.618;1.474;2023-12-07T16:29:36;1065.60;;;972.50;;
31974;SDS011;18500;43.618;1.474;2023-12-07T16:32:02;1038.90;;;949.72;;
31974;SDS011;18500;43.618;1.474;2023-12-07T16:34:28;1074.75;;;981.20;;
31974;SDS011;18500;43.618;1.474;2023-12-07T16:36:54;1065.03;;;968.22;;
31974;SDS011;18500;43.618;1.474;2023-12-07T16:39:19;1027.70;;;940.22;;
31974;SDS011;18500;43.618;1.474;2023-12-07T16:41:45;1046.63;;;958.00;;
31974;SDS011;18500;43.618;1.474;2023-12-07T16:44:11;1013.22;;;926.13;;
31974;SDS011;18500;43.618;1.474;2023-12-07T16:46:38;1014.75;;;927.95;;
31974;SDS011;18500;43.618;1.474;2023-12-07T16:49:04;1013.78;;;923.42;;
31974;SDS011;18500;43.618;1.474;2023-12-07T16:51:30;1043.43;;;948.08;;
31974;SDS011;18500;43.618;1.474;2023-12-07T16:53:56;1022.10;;;926.53;;
31974;SDS011;18500;43.618;1.474;2023-12-07T16:56:21;1029.00;;;926.83;;
31974;SDS011;18500;43.618;1.474;2023-12-07T16:58:47;1057.47;;;959.67;;
31974;SDS011;18500;43.618;1.474;2023-12-07T17:01:13;1034.90;;;936.70;;
31974;SDS011;18500;43.618;1.474;2023-12-07T17:03:39;1016.67;;;922.13;;
31974;SDS011;18500;43.618;1.474;2023-12-07T17:06:05;1020.45;;;919.83;;
31974;SDS011;18500;43.618;1.474;2023-12-07T17:08:31;1045.45;;;948.33;;
31974;SDS011;18500;43.618;1.474;2023-12-07T17:10:57;1061.50;;;963.35;;
31974;SDS011;18500;43.618;1.474;2023-12-07T17:13:22;1063.55;;;969.13;;
31974;SDS011;18500;43.618;1.474;2023-12-07T17:15:48;1061.60;;;968.65;;
31974;SDS011;18500;43.618;1.474;2023-12-07T17:18:14;1115.18;;;999.90;;
31974;SDS011;18500;43.618;1.474;2023-12-07T17:20:39;1039.10;;;949.92;;
31974;SDS011;18500;43.618;1.474;2023-12-07T17:23:05;1123.97;;;999.90;;
31974;SDS011;18500;43.618;1.474;2023-12-07T17:25:31;1040.78;;;949.53;;
31974;SDS011;18500;43.618;1.474;2023-12-07T17:27:56;1021.75;;;935.72;;
31974;SDS011;18500;43.618;1.474;2023-12-07T17:30:22;956.40;;;879.55;;
31974;SDS011;18500;43.618;1.474;2023-12-07T17:32:48;1069.28;;;977.30;;
31974;SDS011;18500;43.618;1.474;2023-12-07T17:35:14;1104.55;;;999.90;;
31974;SDS011;18500;43.618;1.474;2023-12-07T17:37:40;1118.03;;;999.90;;
31974;SDS011;18500;43.618;1.474;2023-12-07T17:40:06;1126.35;;;999.90;;
31974;SDS011;18500;43.618;1.474;2023-12-07T17:42:33;1079.75;;;983.17;;
31974;SDS011;18500;43.618;1.474;2023-12-07T17:44:58;1089.68;;;988.03;;
31974;SDS011;18500;43.618;1.474;2023-12-07T17:47:24;1081.38;;;983.30;;
31974;SDS011;18500;43.618;1.474;2023-12-07T17:49:51;1112.35;;;999.55;;
31974;SDS011;18500;43.618;1.474;2023-12-07T17:52:19;1119.93;;;999.90;;
31974;SDS011;18500;43.618;1.474;2023-12-07T17:54:45;1117.78;;;999.90;;
31974;SDS011;18500;43.618;1.474;2023-12-07T17:57:11;1206.82;;;999.90;;
31974;SDS011;18500;43.618;1.474;2023-12-07T17:59:37;1174.40;;;999.90;;
31974;SDS011;18500;43.618;1.474;2023-12-07T18:02:03;1046.88;;;946.10;;
31974;SDS011;18500;43.618;1.474;2023-12-07T18:04:32;1033.25;;;943.35;;
31974;SDS011;18500;43.618;1.474;2023-12-07T18:07:01;1083.43;;;989.70;;
31974;SDS011;18500;43.618;1.474;2023-12-07T18:09:30;1052.45;;;962.88;;
31974;SDS011;18500;43.618;1.474;2023-12-07T18:11:56;1078.43;;;983.03;;
31974;SDS011;18500;43.618;1.474;2023-12-07T18:14:23;1118.38;;;999.90;;
31974;SDS011;18500;43.618;1.474;2023-12-07T18:16:49;1066.72;;;972.28;;
31974;SDS011;18500;43.618;1.474;2023-12-07T18:19:15;1080.65;;;983.75;;
31974;SDS011;18500;43.618;1.474;2023-12-07T18:21:41;1096.45;;;998.80;;
31974;SDS011;18500;43.618;1.474;2023-12-07T18:24:07;951.63;;;873.70;;
31974;SDS011;18500;43.618;1.474;2023-12-07T18:26:33;1010.20;;;923.50;;
31974;SDS011;18500;43.618;1.474;2023-12-07T18:29:04;951.25;;;873.42;;
31974;SDS011;18500;43.618;1.474;2023-12-07T18:31:32;965.78;;;888.47;;
31974;SDS011;18500;43.618;1.474;2023-12-07T18:33:57;954.88;;;879.13;;
31974;SDS011;18500;43.618;1.474;2023-12-07T18:36:23;906.72;;;832.10;;
31974;SDS011;18500;43.618;1.474;2023-12-07T18:38:49;952.97;;;875.65;;
31974;SDS011;18500;43.618;1.474;2023-12-07T18:41:14;991.90;;;910.05;;
31974;SDS011;18500;43.618;1.474;2023-12-07T18:43:40;990.67;;;905.83;;
31974;SDS011;18500;43.618;1.474;2023-12-07T18:46:06;970.65;;;893.28;;
31974;SDS011;18500;43.618;1.474;2023-12-07T18:48:33;968.72;;;885.78;;
31974;SDS011;18500;43.618;1.474;2023-12-07T18:50:59;1050.25;;;962.58;;
31974;SDS011;18500;43.618;1.474;2023-12-07T18:53:25;1050.50;;;960.55;;
31974;SDS011;18500;43.618;1.474;2023-12-07T18:55:52;1027.93;;;939.33;;
31974;SDS011;18500;43.618;1.474;2023-12-07T18:58:18;982.17;;;897.55;;
31974;SDS011;18500;43.618;1.474;2023-12-07T19:00:47;1037.78;;;948.45;;
31974;SDS011;18500;43.618;1.474;2023-12-07T19:03:13;1064.50;;;970.92;;
31974;SDS011;18500;43.618;1.474;2023-12-07T19:05:38;1040.72;;;952.80;;
31974;SDS011;18500;43.618;1.474;2023-12-07T19:08:04;990.60;;;908.50;;
31974;SDS011;18500;43.618;1.474;2023-12-07T19:10:29;991.78;;;907.42;;
31974;SDS011;18500;43.618;1.474;2023-12-07T19:12:55;1048.43;;;955.42;;
31974;SDS011;18500;43.618;1.474;2023-12-07T19:15:21;1100.60;;;990.05;;
31974;SDS011;18500;43.618;1.474;2023-12-07T19:17:47;1015.15;;;921.65;;
31974;SDS011;18500;43.618;1.474;2023-12-07T19:20:13;995.08;;;906.70;;
31974;SDS011;18500;43.618;1.474;2023-12-07T19:22:39;1008.25;;;923.25;;
31974;SDS011;18500;43.618;1.474;2023-12-07T19:25:05;963.55;;;880.92;;
31974;SDS011;18500;43.618;1.474;2023-12-07T19:27:31;904.65;;;833.53;;
31974;SDS011;18500;43.618;1.474;2023-12-07T19:29:57;943.90;;;870.28;;
31974;SDS011;18500;43.618;1.474;2023-12-07T19:32:23;1013.75;;;922.92;;
31974;SDS011;18500;43.618;1.474;2023-12-07T19:34:49;1032.20;;;937.17;;
31974;SDS011;18500;43.618;1.474;2023-12-07T19:37:15;1076.15;;;973.92;;
31974;SDS011;18500;43.618;1.474;2023-12-07T19:39:40;1018.90;;;935.10;;
31974;SDS011;18500;43.618;1.474;2023-12-07T19:42:06;1102.75;;;999.90;;
31974;SDS011;18500;43.618;1.474;2023-12-07T19:44:32;1059.80;;;964.33;;
31974;SDS011;18500;43.618;1.474;2023-12-07T19:46:58;1035.72;;;947.67;;
31974;SDS011;18500;43.618;1.474;2023-12-07T19:49:23;1022.88;;;936.22;;
31974;SDS011;18500;43.618;1.474;2023-12-07T19:51:49;1093.45;;;997.63;;
31974;SDS011;18500;43.618;1.474;2023-12-07T19:54:15;1046.30;;;960.55;;
31974;SDS011;18500;43.618;1.474;2023-12-07T19:56:42;1097.50;;;998.80;;
31974;SDS011;18500;43.618;1.474;2023-12-07T19:59:09;1137.55;;;999.90;;
31974;SDS011;18500;43.618;1.474;2023-12-07T20:01:34;1116.95;;;999.90;;
31974;SDS011;18500;43.618;1.474;2023-12-07T20:04:00;1090.90;;;995.45;;
31974;SDS011;18500;43.618;1.474;2023-12-07T20:06:27;1130.10;;;999.90;;
31974;SDS011;18500;43.618;1.474;2023-12-07T20:08:52;1024.65;;;923.20;;
31974;SDS011;18500;43.618;1.474;2023-12-07T20:11:18;1066.93;;;969.95;;
31974;SDS011;18500;43.618;1.474;2023-12-07T20:13:45;895.22;;;817.22;;
31974;SDS011;18500;43.618;1.474;2023-12-07T20:16:17;713.03;;;659.35;;
31974;SDS011;18500;43.618;1.474;2023-12-07T20:18:43;627.72;;;579.50;;
31974;SDS011;18500;43.618;1.474;2023-12-07T20:21:09;593.92;;;550.60;;
31974;SDS011;18500;43.618;1.474;2023-12-07T20:23:35;675.38;;;625.20;;
31974;SDS011;18500;43.618;1.474;2023-12-07T20:26:02;605.17;;;564.67;;
31974;SDS011;18500;43.618;1.474;2023-12-07T20:28:28;505.92;;;474.63;;
31974;SDS011;18500;43.618;1.474;2023-12-07T20:30:54;519.55;;;486.67;;
31974;SDS011;18500;43.618;1.474;2023-12-07T20:33:20;512.08;;;478.55;;
31974;SDS011;18500;43.618;1.474;2023-12-07T20:35:45;520.42;;;485.50;;
31974;SDS011;18500;43.618;1.474;2023-12-07T20:38:11;494.58;;;461.23;;
31974;SDS011;18500;43.618;1.474;2023-12-07T20:40:37;511.70;;;477.83;;
31974;SDS011;18500;43.618;1.474;2023-12-07T20:43:03;507.33;;;473.90;;
31974;SDS011;18500;43.618;1.474;2023-12-07T20:45:28;536.83;;;500.90;;
31974;SDS011;18500;43.618;1.474;2023-12-07T20:47:54;660.28;;;610.88;;
31974;SDS011;18500;43.618;1.474;2023-12-07T20:50:20;554.42;;;516.03;;
31974;SDS011;18500;43.618;1.474;2023-12-07T20:52:47;526.00;;;490.17;;
31974;SDS011;18500;43.618;1.474;2023-12-07T20:55:13;526.88;;;491.85;;
31974;SDS011;18500;43.618;1.474;2023-12-07T20:57:41;635.90;;;591.85;;
31974;SDS011;18500;43.618;1.474;2023-12-07T21:00:08;617.97;;;575.13;;
31974;SDS011;18500;43.618;1.474;2023-12-07T21:02:34;596.05;;;556.78;;
31974;SDS011;18500;43.618;1.474;2023-12-07T21:05:00;615.90;;;572.42;;
31974;SDS011;18500;43.618;1.474;2023-12-07T21:07:26;706.17;;;657.63;;
31974;SDS011;18500;43.618;1.474;2023-12-07T21:09:51;691.10;;;642.50;;
31974;SDS011;18500;43.618;1.474;2023-12-07T21:12:17;728.72;;;678.00;;
31974;SDS011;18500;43.618;1.474;2023-12-07T21:14:43;852.85;;;792.28;;
31974;SDS011;18500;43.618;1.474;2023-12-07T21:17:08;905.00;;;839.83;;
31974;SDS011;18500;43.618;1.474;2023-12-07T21:19:38;868.80;;;806.95;;
31974;SDS011;18500;43.618;1.474;2023-12-07T21:22:04;856.85;;;796.72;;
31974;SDS011;18500;43.618;1.474;2023-12-07T21:24:31;930.40;;;862.78;;
31974;SDS011;18500;43.618;1.474;2023-12-07T21:26:58;887.60;;;823.35;;
31974;SDS011;18500;43.618;1.474;2023-12-07T21:29:23;855.13;;;794.05;;
31974;SDS011;18500;43.618;1.474;2023-12-07T21:31:49;798.97;;;742.67;;
31974;SDS011;18500;43.618;1.474;2023-12-07T21:34:15;797.55;;;741.88;;
31974;SDS011;18500;43.618;1.474;2023-12-07T21:36:42;772.60;;;719.10;;
31974;SDS011;18500;43.618;1.474;2023-12-07T21:39:09;736.88;;;685.95;;
31974;SDS011;18500;43.618;1.474;2023-12-07T21:41:35;743.97;;;691.17;;
31974;SDS011;18500;43.618;1.474;2023-12-07T21:44:00;746.67;;;693.08;;
31974;SDS011;18500;43.618;1.474;2023-12-07T21:46:26;752.78;;;699.25;;
31974;SDS011;18500;43.618;1.474;2023-12-07T21:48:52;851.35;;;788.70;;
31974;SDS011;18500;43.618;1.474;2023-12-07T21:51:17;810.78;;;754.75;;
31974;SDS011;18500;43.618;1.474;2023-12-07T21:53:43;729.83;;;679.42;;
31974;SDS011;18500;43.618;1.474;2023-12-07T21:56:10;809.83;;;754.55;;
31974;SDS011;18500;43.618;1.474;2023-12-07T21:58:37;723.30;;;673.05;;
31974;SDS011;18500;43.618;1.474;2023-12-07T22:01:02;682.70;;;636.75;;
31974;SDS011;18500;43.618;1.474;2023-12-07T22:03:28;738.78;;;686.60;;
31974;SDS011;18500;43.618;1.474;2023-12-07T22:05:54;783.17;;;726.08;;
31974;SDS011;18500;43.618;1.474;2023-12-07T22:08:20;789.35;;;730.47;;
31974;SDS011;18500;43.618;1.474;2023-12-07T22:10:45;781.05;;;723.65;;
